Terminal Aerodrome Forecast
Issued by NWS Topeka, KS

Home | Current Version | Previous Version | Graphics & Text | Print | Product List | Glossary On
Versions: 1 2 3 4 5 6 7 8 9 10 11 12 13 14 15 16 17
000
FTUS43 KTOP 261926 AAA
TAFTOP
TAF AMD
KTOP 261926Z 2619/2718 14007KT P6SM VCTS SCT025 BKN035CB
      TEMPO 2620/2624 6SM -TSRA SCT015 BKN025CB
     FM270100 15006KT P6SM SCT025 BKN100
     FM270900 17005KT P6SM VCTS SCT020 BKN030CB
     FM271400 19006KT P6SM SCT020 BKN040=

USA.gov is the U.S. government's official web portal to all federal, state and local government web resources and services.